createdAt,value
2018-12-09T00:01:42.032Z,99083.94
2018-12-09T00:04:10.526Z,99086.11
2018-12-09T00:06:38.863Z,99089.66
2018-12-09T00:09:07.170Z,99090.09
2018-12-09T00:11:35.573Z,99083.70
2018-12-09T00:14:04.465Z,99078.27
2018-12-09T00:16:34.334Z,99078.65
2018-12-09T00:19:03.548Z,99080.61
2018-12-09T00:21:32.534Z,99072.97
2018-12-09T00:24:01.193Z,99069.83
2018-12-09T00:26:30.293Z,99071.80
2018-12-09T00:28:59.860Z,99063.75
2018-12-09T00:31:28.602Z,99059.16
2018-12-09T00:33:57.466Z,99058.12
2018-12-09T00:36:26.145Z,99056.53
2018-12-09T00:38:54.627Z,99051.36
2018-12-09T00:41:23.132Z,99053.84
2018-12-09T00:43:51.518Z,99052.53
2018-12-09T00:46:20.443Z,99053.58
2018-12-09T00:48:49.008Z,99059.16
2018-12-09T00:51:17.484Z,99053.58
2018-12-09T00:53:46.478Z,99052.30
2018-12-09T00:56:15.017Z,99044.89
2018-12-09T00:58:43.333Z,99038.50
2018-12-09T01:01:11.664Z,99032.05
2018-12-09T01:03:39.988Z,99028.56
2018-12-09T01:06:08.297Z,99024.55
2018-12-09T01:08:36.624Z,99030.22
2018-12-09T01:11:04.930Z,99024.91
2018-12-09T01:13:33.250Z,99023.98
2018-12-09T01:16:01.622Z,99015.48
2018-12-09T01:18:29.929Z,99024.69
2018-12-09T01:20:58.235Z,99024.50
2018-12-09T01:23:27.099Z,99013.03
2018-12-09T01:25:55.411Z,99005.88
2018-12-09T01:28:23.746Z,99009.17
2018-12-09T01:30:52.262Z,99010.48
2018-12-09T01:33:21.479Z,99002.87
2018-12-09T01:35:49.793Z,98995.02
2018-12-09T01:38:18.102Z,99002.66
2018-12-09T01:40:52.217Z,99001.08
2018-12-09T01:43:20.567Z,98998.05
2018-12-09T01:45:48.874Z,98991.61
2018-12-09T01:48:17.194Z,98983.88
2018-12-09T01:50:45.541Z,98979.67
2018-12-09T01:53:25.865Z,98990.59
2018-12-09T01:55:55.608Z,98981.14
2018-12-09T01:58:22.513Z,98977.82
2018-12-09T02:00:50.836Z,98968.12
2018-12-09T02:03:19.143Z,98969.19
2018-12-09T02:05:47.470Z,98960.50
2018-12-09T02:08:16.079Z,98962.51
2018-12-09T02:10:44.417Z,98960.30
2018-12-09T02:13:12.704Z,98955.34
2018-12-09T02:15:41.015Z,98949.18
2018-12-09T02:18:09.330Z,98943.23
2018-12-09T02:20:37.647Z,98941.11
2018-12-09T02:23:05.958Z,98935.82
2018-12-09T02:25:34.633Z,98933.18
2018-12-09T02:28:03.219Z,98931.66
2018-12-09T02:30:31.525Z,98925.44
2018-12-09T02:32:59.834Z,98923.94
2018-12-09T02:35:28.155Z,98918.16
2018-12-09T02:37:56.473Z,98909.58
2018-12-09T02:40:24.779Z,98911.13
2018-12-09T02:42:53.315Z,98906.79
2018-12-09T02:45:21.626Z,98902.99
2018-12-09T02:47:49.946Z,98902.69
2018-12-09T02:50:18.249Z,98894.64
2018-12-09T02:52:46.587Z,98893.90
2018-12-09T02:55:14.897Z,98892.02
2018-12-09T02:57:43.197Z,98894.42
2018-12-09T03:00:11.510Z,98895.08
2018-12-09T03:02:39.832Z,98896.48
2018-12-09T03:05:08.136Z,98892.78
2018-12-09T03:07:36.447Z,98887.65
2018-12-09T03:10:04.759Z,98878.68
2018-12-09T03:12:33.070Z,98880.51
2018-12-09T03:15:01.393Z,98867.57
2018-12-09T03:17:29.694Z,98863.94
2018-12-09T03:19:58.035Z,98858.50
2018-12-09T03:22:26.327Z,98855.66
2018-12-09T03:24:54.652Z,98859.67
2018-12-09T03:27:22.975Z,98867.44
2018-12-09T03:29:51.282Z,98861.88
2018-12-09T03:32:19.628Z,98857.97
2018-12-09T03:34:47.912Z,98863.38
2018-12-09T03:37:16.227Z,98863.38
2018-12-09T03:39:44.545Z,98858.05
2018-12-09T03:42:13.446Z,98854.48
2018-12-09T03:44:41.755Z,98851.61
2018-12-09T03:47:10.070Z,98851.06
2018-12-09T03:49:38.372Z,98842.92
2018-12-09T03:52:06.707Z,98838.38
2018-12-09T03:54:35.044Z,98839.17
2018-12-09T03:57:04.728Z,98829.58
2018-12-09T03:59:31.667Z,98831.92
2018-12-09T04:01:59.988Z,98822.53
2018-12-09T04:04:28.300Z,98819.08
2018-12-09T04:06:56.924Z,98813.31
2018-12-09T04:09:25.240Z,98811.06
2018-12-09T04:11:53.885Z,98812.16
2018-12-09T04:14:22.306Z,98807.16
2018-12-09T04:16:50.616Z,98804.73
2018-12-09T04:19:18.931Z,98798.42
2018-12-09T04:21:47.607Z,98798.29
2018-12-09T04:24:15.914Z,98795.78
2018-12-09T04:26:44.230Z,98793.86
2018-12-09T04:29:12.548Z,98787.36
2018-12-09T04:31:40.865Z,98786.19
2018-12-09T04:34:09.201Z,98780.03
2018-12-09T04:36:37.501Z,98783.34
2018-12-09T04:39:05.808Z,98784.03
2018-12-09T04:41:34.117Z,98781.80
2018-12-09T04:44:02.732Z,98767.39
2018-12-09T04:46:31.051Z,98769.57
2018-12-09T04:48:59.365Z,98761.38
2018-12-09T04:51:27.666Z,98758.89
2018-12-09T04:53:55.973Z,98760.28
2018-12-09T04:56:24.292Z,98756.28
2018-12-09T04:58:54.504Z,98755.49
2018-12-09T05:01:22.823Z,98742.66
2018-12-09T05:03:51.125Z,98737.16
2018-12-09T05:06:19.441Z,98732.16
2018-12-09T05:08:47.756Z,98723.84
2018-12-09T05:11:16.080Z,98722.08
2018-12-09T05:13:44.383Z,98713.39
2018-12-09T05:16:12.689Z,98708.59
2018-12-09T05:18:41.282Z,98702.48
2018-12-09T05:21:09.882Z,98707.04
2018-12-09T05:23:38.193Z,98708.47
2018-12-09T05:26:06.516Z,98709.46
2018-12-09T05:28:34.820Z,98702.16
2018-12-09T05:31:03.130Z,98695.70
2018-12-09T05:33:31.440Z,98694.51
2018-12-09T05:35:59.759Z,98691.06
2018-12-09T05:38:28.071Z,98689.31
2018-12-09T05:40:56.378Z,98692.59
2018-12-09T05:43:24.694Z,98689.63
2018-12-09T05:45:53.020Z,98683.22
2018-12-09T05:48:21.643Z,98689.05
2018-12-09T05:50:49.974Z,98684.39
2018-12-09T05:53:18.278Z,98690.94
2018-12-09T05:55:46.598Z,98684.29
2018-12-09T05:58:15.009Z,98685.43
2018-12-09T06:00:43.327Z,98685.47
2018-12-09T06:03:11.651Z,98679.19
2018-12-09T06:05:39.966Z,98682.04
2018-12-09T06:08:08.281Z,98682.70
2018-12-09T06:10:36.594Z,98677.78
2018-12-09T06:13:05.943Z,98674.64
2018-12-09T06:15:33.216Z,98678.19
2018-12-09T06:18:01.817Z,98673.12
2018-12-09T06:20:30.127Z,98672.02
2018-12-09T06:22:58.434Z,98669.38
2018-12-09T06:25:26.751Z,98669.91
2018-12-09T06:27:55.059Z,98667.66
2018-12-09T06:30:23.510Z,98664.90
2018-12-09T06:32:51.816Z,98663.52
2018-12-09T06:35:20.121Z,98660.13
2018-12-09T06:37:48.439Z,98654.91
2018-12-09T06:40:16.753Z,98661.91
2018-12-09T06:42:45.061Z,98657.80
2018-12-09T06:45:13.692Z,98661.48
2018-12-09T06:47:41.998Z,98658.37
2018-12-09T06:50:10.316Z,98659.23
2018-12-09T06:52:38.626Z,98651.98
2018-12-09T06:55:06.933Z,98649.80
2018-12-09T06:57:35.246Z,98651.90
2018-12-09T07:00:03.593Z,98643.11
2018-12-09T07:02:31.904Z,98641.28
2018-12-09T07:05:00.237Z,98645.20
2018-12-09T07:07:28.916Z,98635.84
2018-12-09T07:09:57.246Z,98639.85
2018-12-09T07:12:25.606Z,98626.52
2018-12-09T07:14:53.909Z,98635.27
2018-12-09T07:17:23.253Z,98637.23
2018-12-09T07:19:51.581Z,98633.90
2018-12-09T07:22:19.888Z,98632.38
2018-12-09T07:24:48.205Z,98630.39
2018-12-09T07:27:16.505Z,98630.16
2018-12-09T07:29:44.831Z,98628.56
2018-12-09T07:32:13.141Z,98625.61
2018-12-09T07:34:41.454Z,98623.95
2018-12-09T07:37:09.770Z,98621.11
2018-12-09T07:39:38.125Z,98620.85
2018-12-09T07:42:06.447Z,98617.22
2018-12-09T07:44:34.781Z,98616.14
2018-12-09T07:47:03.090Z,98615.41
2018-12-09T07:49:31.428Z,98616.67
2018-12-09T07:51:59.718Z,98619.39
2018-12-09T07:54:28.045Z,98612.21
2018-12-09T07:56:56.354Z,98610.05
2018-12-09T07:59:24.680Z,98609.70
2018-12-09T08:01:52.998Z,98606.20
2018-12-09T08:04:21.330Z,98608.99
2018-12-09T08:06:49.644Z,98605.92
2018-12-09T08:09:17.974Z,98604.93
2018-12-09T08:11:46.293Z,98606.66
2018-12-09T08:14:14.613Z,98606.66
2018-12-09T08:16:42.932Z,98604.52
2018-12-09T08:19:11.251Z,98606.86
2018-12-09T08:21:39.572Z,98605.10
2018-12-09T08:24:07.891Z,98603.36
2018-12-09T08:26:36.478Z,98605.82
2018-12-09T08:29:04.817Z,98599.45
2018-12-09T08:31:33.132Z,98592.80
2018-12-09T08:34:02.156Z,98594.99
2018-12-09T08:36:30.478Z,98587.86
2018-12-09T08:38:58.800Z,98583.31
2018-12-09T08:41:27.108Z,98585.39
2018-12-09T08:43:55.425Z,98585.14
2018-12-09T08:46:23.749Z,98584.75
2018-12-09T08:48:52.059Z,98586.52
2018-12-09T08:51:20.375Z,98587.35
2018-12-09T08:53:48.698Z,98579.16
2018-12-09T08:56:17.342Z,98581.47
2018-12-09T08:58:45.941Z,98583.10
2018-12-09T09:01:14.265Z,98576.80
2018-12-09T09:03:42.612Z,98583.59
2018-12-09T09:06:11.088Z,98574.27
2018-12-09T09:08:39.408Z,98570.98
2018-12-09T09:11:07.748Z,98566.39
2018-12-09T09:13:36.069Z,98568.47
2018-12-09T09:16:04.403Z,98565.30
2018-12-09T09:18:32.725Z,98565.13
2018-12-09T09:21:01.038Z,98563.59
2018-12-09T09:23:29.358Z,98564.36
2018-12-09T09:25:57.664Z,98560.73
2018-12-09T09:28:25.986Z,98554.44
2018-12-09T09:30:54.289Z,98554.54
2018-12-09T09:33:22.602Z,98554.25
2018-12-09T09:35:50.910Z,98542.34
2018-12-09T09:38:19.229Z,98538.94
2018-12-09T09:40:47.537Z,98533.52
2018-12-09T09:43:15.845Z,98533.91
2018-12-09T09:45:44.168Z,98537.40
2018-12-09T09:48:12.484Z,98531.05
2018-12-09T09:50:40.803Z,98533.86
2018-12-09T09:53:09.113Z,98539.06
2018-12-09T09:55:37.470Z,98534.70
2018-12-09T09:58:05.788Z,98530.13
2018-12-09T10:00:34.099Z,98527.76
2018-12-09T10:03:02.426Z,98523.06
2018-12-09T10:05:30.769Z,98527.53
2018-12-09T10:07:59.076Z,98525.47
2018-12-09T10:10:27.398Z,98524.41
2018-12-09T10:12:55.738Z,98523.84
2018-12-09T10:15:24.064Z,98520.30
2018-12-09T10:17:52.382Z,98519.65
2018-12-09T10:20:21.068Z,98514.41
2018-12-09T10:22:49.400Z,98520.11
2018-12-09T10:25:17.702Z,98515.34
2018-12-09T10:27:46.028Z,98517.34
2018-12-09T10:30:14.337Z,98519.49
2018-12-09T10:32:42.663Z,98517.28
2018-12-09T10:35:10.989Z,98520.03
2018-12-09T10:37:39.297Z,98521.79
2018-12-09T10:40:07.624Z,98521.92
2018-12-09T10:42:35.965Z,98521.45
2018-12-09T10:45:04.304Z,98517.84
2018-12-09T10:47:32.631Z,98518.72
2018-12-09T10:50:00.952Z,98510.78
2018-12-09T10:52:29.281Z,98510.08
2018-12-09T10:54:57.600Z,98505.94
2018-12-09T10:57:25.912Z,98505.74
2018-12-09T10:59:54.228Z,98505.41
2018-12-09T11:02:22.560Z,98505.66
2018-12-09T11:04:50.897Z,98505.69
2018-12-09T11:07:19.225Z,98506.05
2018-12-09T11:09:47.550Z,98509.20
2018-12-09T11:12:15.863Z,98513.48
2018-12-09T11:14:44.205Z,98514.56
2018-12-09T11:17:13.442Z,98501.94
2018-12-09T11:19:41.756Z,98502.57
2018-12-09T11:22:10.071Z,98501.52
2018-12-09T11:24:38.393Z,98502.59
2018-12-09T11:27:06.724Z,98498.32
2018-12-09T11:29:35.032Z,98498.85
2018-12-09T11:32:03.350Z,98499.85
2018-12-09T11:34:31.691Z,98502.44
2018-12-09T11:37:00.122Z,98502.75
2018-12-09T11:39:28.335Z,98504.09
2018-12-09T11:41:56.645Z,98497.36
2018-12-09T11:44:24.961Z,98500.02
2018-12-09T11:46:53.558Z,98503.20
2018-12-09T11:49:22.169Z,98499.11
2018-12-09T11:51:50.501Z,98501.06
2018-12-09T11:54:18.838Z,98501.26
2018-12-09T11:56:47.157Z,98500.11
2018-12-09T11:59:15.515Z,98506.02
2018-12-09T12:01:43.857Z,98503.84
2018-12-09T12:04:12.176Z,98507.82
2018-12-09T12:06:40.476Z,98509.39
2018-12-09T12:09:09.017Z,98506.55
2018-12-09T12:11:37.340Z,98510.62
2018-12-09T12:14:05.660Z,98512.06
2018-12-09T12:16:33.963Z,98516.80
2018-12-09T12:19:04.118Z,98516.64
2018-12-09T12:21:32.451Z,98521.97
2018-12-09T12:24:01.257Z,98521.78
2018-12-09T12:26:30.154Z,98524.31
2018-12-09T12:28:58.493Z,98528.74
2018-12-09T12:31:26.832Z,98536.27
2018-12-09T12:33:55.149Z,98541.09
2018-12-09T12:36:23.464Z,98546.66
2018-12-09T12:38:51.783Z,98544.84
2018-12-09T12:41:20.115Z,98549.04
2018-12-09T12:43:48.442Z,98549.88
2018-12-09T12:46:16.755Z,98550.45
2018-12-09T12:48:45.081Z,98553.98
2018-12-09T12:51:13.423Z,98563.62
2018-12-09T12:53:41.752Z,98570.80
2018-12-09T12:56:10.079Z,98575.33
2018-12-09T12:58:38.410Z,98579.05
2018-12-09T13:01:06.720Z,98578.47
2018-12-09T13:03:35.057Z,98587.56
2018-12-09T13:06:03.391Z,98586.14
2018-12-09T13:08:31.715Z,98593.00
2018-12-09T13:11:00.078Z,98593.44
2018-12-09T13:13:28.635Z,98607.09
2018-12-09T13:15:56.734Z,98612.42
2018-12-09T13:18:25.069Z,98602.19
2018-12-09T13:20:53.387Z,98602.66
2018-12-09T13:23:21.717Z,98607.66
2018-12-09T13:25:50.278Z,98606.53
2018-12-09T13:28:18.379Z,98610.47
2018-12-09T13:30:46.705Z,98614.17
2018-12-09T13:33:15.595Z,98616.81
2018-12-09T13:35:43.937Z,98624.25
2018-12-09T13:38:12.555Z,98627.69
2018-12-09T13:40:40.882Z,98631.50
2018-12-09T13:43:09.220Z,98639.52
2018-12-09T13:45:37.795Z,98637.88
2018-12-09T13:48:06.112Z,98639.57
2018-12-09T13:50:34.431Z,98643.41
2018-12-09T13:53:02.757Z,98646.11
2018-12-09T13:55:31.089Z,98642.64
2018-12-09T13:57:59.638Z,98647.73
2018-12-09T14:00:27.751Z,98652.98
2018-12-09T14:02:56.064Z,98662.58
2018-12-09T14:05:24.400Z,98662.48
2018-12-09T14:07:52.742Z,98670.98
2018-12-09T14:10:21.061Z,98673.18
2018-12-09T14:12:49.524Z,98675.05
2018-12-09T14:15:17.871Z,98671.08
2018-12-09T14:17:46.207Z,98675.86
2018-12-09T14:20:14.539Z,98674.50
2018-12-09T14:22:42.896Z,98677.27
2018-12-09T14:25:11.231Z,98680.78
2018-12-09T14:27:39.567Z,98685.36
2018-12-09T14:30:07.880Z,98681.23
2018-12-09T14:32:36.205Z,98690.47
2018-12-09T14:35:04.539Z,98688.66
2018-12-09T14:37:32.868Z,98687.55
2018-12-09T14:40:01.185Z,98692.57
2018-12-09T14:42:29.513Z,98689.16
2018-12-09T14:44:57.847Z,98693.72
2018-12-09T14:47:26.167Z,98704.16
2018-12-09T14:49:54.506Z,98699.20
2018-12-09T14:52:22.829Z,98704.28
2018-12-09T14:54:51.160Z,98703.83
2018-12-09T14:57:19.475Z,98703.84
2018-12-09T14:59:47.798Z,98703.86
2018-12-09T15:02:16.133Z,98704.29
2018-12-09T15:04:44.457Z,98713.55
2018-12-09T15:07:12.785Z,98722.23
2018-12-09T15:09:41.115Z,98723.97
2018-12-09T15:12:09.456Z,98717.95
2018-12-09T15:14:37.831Z,98725.34
2018-12-09T15:17:06.166Z,98721.30
2018-12-09T15:19:34.516Z,98729.62
2018-12-09T15:22:02.855Z,98720.73
2018-12-09T15:24:31.503Z,98727.58
2018-12-09T15:26:59.846Z,98725.03
2018-12-09T15:29:28.456Z,98725.30
2018-12-09T15:31:56.840Z,98729.95
2018-12-09T15:34:25.155Z,98723.23
2018-12-09T15:36:53.475Z,98727.47
2018-12-09T15:39:21.244Z,98740.42
2018-12-09T15:41:50.227Z,98742.20
2018-12-09T15:44:18.545Z,98740.51
2018-12-09T15:46:46.889Z,98741.76
2018-12-09T15:49:15.225Z,98745.80
2018-12-09T15:51:43.577Z,98744.81
2018-12-09T15:54:11.917Z,98757.58
2018-12-09T15:56:40.277Z,98765.13
2018-12-09T15:59:08.605Z,98763.75
2018-12-09T16:01:37.209Z,98765.66
2018-12-09T16:04:05.532Z,98770.10
2018-12-09T16:06:33.886Z,98764.43
2018-12-09T16:09:02.273Z,98774.75
2018-12-09T16:11:31.421Z,98771.06
2018-12-09T16:13:59.767Z,98766.61
2018-12-09T16:16:28.146Z,98785.27
2018-12-09T16:18:56.485Z,98774.75
2018-12-09T16:21:24.883Z,98777.31
2018-12-09T16:23:53.271Z,98777.08
2018-12-09T16:26:21.572Z,98780.70
2018-12-09T16:28:49.929Z,98793.01
2018-12-09T16:31:18.250Z,98785.38
2018-12-09T16:33:46.803Z,98791.05
2018-12-09T16:36:14.935Z,98800.81
2018-12-09T16:38:43.267Z,98805.39
2018-12-09T16:41:11.614Z,98806.80
2018-12-09T16:43:39.925Z,98804.83
2018-12-09T16:46:08.265Z,98809.23
2018-12-09T16:48:36.991Z,98815.27
2018-12-09T16:51:05.638Z,98823.98
2018-12-09T16:53:34.150Z,98811.70
2018-12-09T16:56:02.485Z,98811.68
2018-12-09T16:58:30.824Z,98819.96
2018-12-09T17:00:59.141Z,98817.62
2018-12-09T17:03:28.547Z,98821.46
2018-12-09T17:05:55.890Z,98825.75
2018-12-09T17:08:24.286Z,98824.23
2018-12-09T17:10:52.687Z,98838.66
2018-12-09T17:13:21.121Z,98826.90
2018-12-09T17:15:49.460Z,98828.09
2018-12-09T17:18:17.923Z,98832.44
2018-12-09T17:20:46.287Z,98849.03
2018-12-09T17:23:24.585Z,98841.28
2018-12-09T17:25:50.111Z,98837.66
2018-12-09T17:28:18.565Z,98846.43
2018-12-09T17:30:46.907Z,98852.84
2018-12-09T17:33:15.527Z,98845.46
2018-12-09T17:35:43.897Z,98846.45
2018-12-09T17:38:12.218Z,98845.64
2018-12-09T17:40:40.663Z,98855.61
2018-12-09T17:43:08.990Z,98852.21
2018-12-09T17:45:37.311Z,98844.48
2018-12-09T17:48:06.640Z,98853.03
2018-12-09T17:50:34.989Z,98857.56
2018-12-09T17:53:03.417Z,98860.86
2018-12-09T17:55:31.749Z,98856.63
2018-12-09T17:58:00.865Z,98866.39
2018-12-09T18:00:29.225Z,98864.24
2018-12-09T18:02:57.609Z,98867.17
2018-12-09T18:05:25.942Z,98867.88
2018-12-09T18:07:54.286Z,98867.36
2018-12-09T18:10:22.639Z,98873.11
2018-12-09T18:12:51.062Z,98872.82
2018-12-09T18:15:21.147Z,98880.86
2018-12-09T18:17:49.496Z,98874.74
2018-12-09T18:20:18.541Z,98883.66
2018-12-09T18:22:46.897Z,98899.42
2018-12-09T18:25:15.305Z,98901.81
2018-12-09T18:27:43.725Z,98905.67
2018-12-09T18:30:12.084Z,98906.48
2018-12-09T18:32:40.488Z,98911.09
2018-12-09T18:35:08.831Z,98917.05
2018-12-09T18:37:37.208Z,98911.91
2018-12-09T18:40:05.598Z,98922.09
2018-12-09T18:42:36.041Z,98921.45
2018-12-09T18:45:04.691Z,98919.84
2018-12-09T18:47:33.067Z,98919.63
2018-12-09T18:50:02.428Z,98916.96
2018-12-09T18:52:29.722Z,98919.67
2018-12-09T18:54:58.063Z,98924.27
2018-12-09T18:57:26.406Z,98929.52
2018-12-09T18:59:54.765Z,98935.81
2018-12-09T19:02:23.040Z,98932.33
2018-12-09T19:04:52.370Z,98928.61
2018-12-09T19:07:19.785Z,98936.67
2018-12-09T19:09:48.096Z,98938.39
2018-12-09T19:12:16.465Z,98943.95
2018-12-09T19:14:44.855Z,98958.23
2018-12-09T19:17:13.176Z,98944.47
2018-12-09T19:19:41.543Z,98947.75
2018-12-09T19:22:11.803Z,98957.41
2018-12-09T19:24:40.135Z,98962.57
2018-12-09T19:27:08.474Z,98961.94
2018-12-09T19:29:37.178Z,98964.93
2018-12-09T19:32:05.671Z,98964.02
2018-12-09T19:34:34.258Z,98971.45
2018-12-09T19:37:02.495Z,98975.08
2018-12-09T19:39:30.964Z,98981.05
2018-12-09T19:41:59.321Z,98983.90
2018-12-09T19:44:27.766Z,98982.84
2018-12-09T19:46:57.610Z,98985.47
2018-12-09T19:49:25.949Z,98986.10
2018-12-09T19:51:54.290Z,98995.11
2018-12-09T19:54:22.620Z,98997.05
2018-12-09T19:56:51.210Z,98995.39
2018-12-09T19:59:19.579Z,99004.64
2018-12-09T20:01:48.113Z,99007.23
2018-12-09T20:04:16.445Z,99009.65
2018-12-09T20:06:44.799Z,99013.14
2018-12-09T20:09:13.269Z,99014.64
2018-12-09T20:11:41.592Z,99007.82
2018-12-09T20:14:11.015Z,99016.67
2018-12-09T20:16:39.749Z,99015.68
2018-12-09T20:19:08.075Z,99019.25
2018-12-09T20:21:36.465Z,99023.77
2018-12-09T20:24:05.070Z,99030.05
2018-12-09T20:26:34.874Z,99028.84
2018-12-09T20:29:03.200Z,99036.78
2018-12-09T20:31:31.517Z,99034.86
2018-12-09T20:33:59.861Z,99037.67
2018-12-09T20:36:28.227Z,99036.86
2018-12-09T20:38:56.587Z,99037.54
2018-12-09T20:41:24.916Z,99042.58
2018-12-09T20:43:53.310Z,99039.29
2018-12-09T20:46:21.803Z,99048.48
2018-12-09T20:48:51.358Z,99048.20
2018-12-09T20:51:19.715Z,99053.30
2018-12-09T20:53:48.339Z,99051.98
2018-12-09T20:56:16.800Z,99056.99
2018-12-09T20:58:46.264Z,99056.45
2018-12-09T21:01:13.917Z,99062.06
2018-12-09T21:03:42.254Z,99065.41
2018-12-09T21:06:10.597Z,99063.51
2018-12-09T21:08:39.018Z,99063.55
2018-12-09T21:11:07.447Z,99066.07
2018-12-09T21:13:35.776Z,99070.19
2018-12-09T21:16:04.100Z,99079.13
2018-12-09T21:18:32.433Z,99081.14
2018-12-09T21:21:00.756Z,99083.48
2018-12-09T21:23:29.120Z,99090.61
2018-12-09T21:25:57.621Z,99087.95
2018-12-09T21:28:25.930Z,99087.41
2018-12-09T21:30:54.323Z,99092.84
2018-12-09T21:33:23.962Z,99086.27
2018-12-09T21:35:53.999Z,99083.57
2018-12-09T21:38:22.511Z,99083.81
2018-12-09T21:40:50.862Z,99078.98
2018-12-09T21:43:19.174Z,99077.37
2018-12-09T21:45:47.512Z,99078.17
2018-12-09T21:48:15.883Z,99079.30
2018-12-09T21:50:44.212Z,99079.22
2018-12-09T21:53:12.575Z,99077.10
2018-12-09T21:55:41.601Z,99084.10
2018-12-09T21:58:09.962Z,99086.16
2018-12-09T22:00:38.250Z,99089.22
2018-12-09T22:03:08.674Z,99091.38
2018-12-09T22:05:34.979Z,99095.25
2018-12-09T22:08:03.688Z,99100.83
2018-12-09T22:10:32.055Z,99107.48
2018-12-09T22:13:01.354Z,99111.20
2018-12-09T22:15:29.692Z,99109.52
2018-12-09T22:17:58.029Z,99117.19
2018-12-09T22:20:26.331Z,99117.23
2018-12-09T22:22:54.652Z,99117.66
2018-12-09T22:25:23.030Z,99118.78
2018-12-09T22:27:51.362Z,99123.11
2018-12-09T22:30:19.684Z,99123.75
2018-12-09T22:32:48.036Z,99125.56
2018-12-09T22:35:16.368Z,99128.23
2018-12-09T22:37:44.700Z,99138.02
2018-12-09T22:40:13.012Z,99136.19
2018-12-09T22:42:41.347Z,99132.52
2018-12-09T22:45:09.667Z,99135.55
2018-12-09T22:47:38.036Z,99134.94
2018-12-09T22:50:06.347Z,99134.90
2018-12-09T22:52:34.663Z,99140.25
2018-12-09T22:55:02.980Z,99138.39
2018-12-09T22:57:31.313Z,99143.38
2018-12-09T22:59:59.846Z,99149.37
2018-12-09T23:02:31.013Z,99145.38
2018-12-09T23:04:59.499Z,99144.05
2018-12-09T23:07:33.544Z,99146.59
2018-12-09T23:10:02.218Z,99142.34
2018-12-09T23:12:30.552Z,99139.13
2018-12-09T23:14:58.936Z,99138.63
2018-12-09T23:17:27.349Z,99139.37
2018-12-09T23:19:55.682Z,99139.89
2018-12-09T23:22:24.059Z,99139.87
2018-12-09T23:24:52.595Z,99137.20
2018-12-09T23:27:20.930Z,99140.12
2018-12-09T23:29:49.333Z,99141.63
2018-12-09T23:32:17.636Z,99144.39
2018-12-09T23:34:45.948Z,99136.27
2018-12-09T23:37:14.269Z,99142.45
2018-12-09T23:39:42.586Z,99144.22
2018-12-09T23:42:10.896Z,99149.80
2018-12-09T23:44:39.210Z,99152.65
2018-12-09T23:47:07.678Z,99150.88
2018-12-09T23:49:35.993Z,99147.75
2018-12-09T23:52:04.312Z,99149.81
2018-12-09T23:54:32.769Z,99154.33
2018-12-09T23:57:01.102Z,99153.71
2018-12-09T23:59:29.423Z,99159.37
